Time;durP1;ratioP1;P1;durP2;ratioP2;P2;SDS_P1;SDS_P2;PMS_P1;PMS_P2;Temp;Humidity;BMP_temperature;BMP_pressure;BME280_temperature;BME280_humidity;BME280_pressure;Samples;Min_cycle;Max_cycle;Signal;HPM_P1;HPM_P2
2023/09/04 00:02:23;;;;;;;39.30;23.92;;;18.50;99.90;;;;;;4902808;29;20105;-61
2023/09/04 00:04:51;;;;;;;36.10;24.58;;;18.50;99.90;;;;;;4906974;29;20047;-60
2023/09/04 00:07:19;;;;;;;32.55;24.35;;;18.40;99.90;;;;;;4894919;29;20047;-61
2023/09/04 00:09:46;;;;;;;38.63;26.45;;;18.40;99.90;;;;;;4896856;29;20045;-60
2023/09/04 00:12:13;;;;;;;37.00;24.30;;;18.30;99.90;;;;;;4903797;29;20052;-60
2023/09/04 00:14:40;;;;;;;32.92;24.40;;;18.30;99.90;;;;;;4904249;29;20051;-60
2023/09/04 00:17:07;;;;;;;34.30;24.70;;;18.30;99.90;;;;;;4910634;29;20056;-60
2023/09/04 00:19:34;;;;;;;37.53;25.17;;;18.30;99.90;;;;;;4886284;29;20048;-60
2023/09/04 00:22:01;;;;;;;35.65;24.85;;;18.20;99.90;;;;;;4907714;29;20052;-60
2023/09/04 00:24:28;;;;;;;41.30;27.70;;;18.30;99.90;;;;;;4909825;29;20088;-60
2023/09/04 00:26:54;;;;;;;37.70;25.52;;;18.20;99.90;;;;;;4910473;29;20590;-59
2023/09/04 00:29:22;;;;;;;35.53;25.42;;;18.20;99.90;;;;;;4909703;29;20492;-60
2023/09/04 00:31:49;;;;;;;38.35;26.60;;;18.20;99.90;;;;;;4898818;29;20464;-60
2023/09/04 00:34:16;;;;;;;39.67;26.02;;;18.20;99.90;;;;;;4908686;29;20087;-60
2023/09/04 00:36:43;;;;;;;39.13;26.17;;;18.20;99.90;;;;;;4909621;29;20104;-60
2023/09/04 00:39:09;;;;;;;38.08;26.15;;;18.20;99.90;;;;;;4908650;29;20407;-60
2023/09/04 00:41:36;;;;;;;37.30;26.27;;;18.20;99.90;;;;;;4908744;29;20059;-60
2023/09/04 00:44:04;;;;;;;42.17;27.10;;;18.20;99.90;;;;;;4899456;29;20066;-60
2023/09/04 00:46:31;;;;;;;40.75;28.10;;;18.20;99.90;;;;;;4904548;29;20571;-59
2023/09/04 00:48:58;;;;;;;44.25;28.38;;;18.10;99.90;;;;;;4893567;29;20052;-60
2023/09/04 00:51:24;;;;;;;44.15;28.08;;;18.10;99.90;;;;;;4883013;29;20092;-60
2023/09/04 00:53:51;;;;;;;41.42;27.58;;;18.10;99.90;;;;;;4889614;29;20040;-60
2023/09/04 00:56:18;;;;;;;37.17;29.10;;;18.10;99.90;;;;;;4884182;29;20114;-59
2023/09/04 00:58:45;;;;;;;43.13;27.90;;;18.00;99.90;;;;;;4907336;29;20044;-60
2023/09/04 01:01:12;;;;;;;44.42;27.15;;;18.00;99.90;;;;;;4900929;29;20143;-59
2023/09/04 01:03:39;;;;;;;41.53;28.65;;;18.00;99.90;;;;;;4896552;29;20082;-60
2023/09/04 01:06:06;;;;;;;44.58;27.90;;;18.00;99.90;;;;;;4891597;29;20052;-59
2023/09/04 01:08:36;;;;;;;40.83;28.30;;;18.00;99.90;;;;;;4880524;29;20045;-59
2023/09/04 01:11:29;;;;;;;43.30;29.23;;;18.00;99.90;;;;;;4907421;29;20559;-59
2023/09/04 01:13:57;;;;;;;41.27;28.63;;;18.00;99.90;;;;;;4890727;29;20060;-60
2023/09/04 01:16:23;;;;;;;45.50;30.95;;;18.00;99.90;;;;;;4882667;29;20456;-60
2023/09/04 01:18:51;;;;;;;47.53;32.15;;;18.00;99.90;;;;;;4910885;29;20048;-60
2023/09/04 01:21:18;;;;;;;47.38;33.40;;;18.00;99.90;;;;;;4910239;29;20048;-60
2023/09/04 01:23:44;;;;;;;47.58;33.97;;;18.00;99.90;;;;;;4909016;29;20044;-63
2023/09/04 01:26:30;;;;;;;52.60;33.90;;;18.00;99.90;;;;;;4567991;29;10000660;-61
2023/09/04 01:29:18;;;;;;;51.10;33.50;;;18.00;99.90;;;;;;4913764;29;20249;-59
2023/09/04 01:32:07;;;;;;;59.60;37.15;;;18.00;99.90;;;;;;4899588;29;20044;-60
2023/09/04 01:34:36;;;;;;;59.40;37.83;;;18.00;99.90;;;;;;4904589;29;20139;-61
2023/09/04 01:37:03;;;;;;;60.53;39.65;;;18.00;99.90;;;;;;4893955;29;20060;-60
2023/09/04 01:39:30;;;;;;;68.63;41.55;;;18.10;99.90;;;;;;4891180;29;20045;-60
2023/09/04 01:41:57;;;;;;;67.20;41.95;;;18.10;99.90;;;;;;4897676;29;20064;-60
2023/09/04 01:44:24;;;;;;;72.82;43.53;;;18.10;99.90;;;;;;4891743;29;20048;-60
2023/09/04 01:46:51;;;;;;;75.22;44.25;;;18.10;99.90;;;;;;4907941;29;20400;-60
2023/09/04 01:49:18;;;;;;;87.65;48.38;;;18.20;99.90;;;;;;4913290;29;20144;-62
2023/09/04 01:51:45;;;;;;;90.28;47.20;;;18.20;99.90;;;;;;4915308;29;20688;-60
2023/09/04 01:54:12;;;;;;;96.45;45.22;;;18.20;99.90;;;;;;4906555;29;20056;-63
2023/09/04 01:56:39;;;;;;;94.07;45.47;;;18.10;99.90;;;;;;4904074;29;20471;-64
2023/09/04 01:59:06;;;;;;;87.15;44.72;;;18.20;99.90;;;;;;4910519;29;20060;-60
2023/09/04 02:01:33;;;;;;;95.78;45.92;;;18.20;99.90;;;;;;4900152;29;20056;-60
2023/09/04 02:03:59;;;;;;;94.90;46.42;;;18.20;99.90;;;;;;4910424;29;20052;-59
2023/09/04 02:06:28;;;;;;;86.32;44.17;;;18.20;99.90;;;;;;4909356;29;20459;-60
2023/09/04 02:08:55;;;;;;;93.88;48.10;;;18.20;99.90;;;;;;4913957;29;20051;-62
2023/09/04 02:11:22;;;;;;;99.65;51.25;;;18.20;99.90;;;;;;4915278;29;20051;-60
2023/09/04 02:13:49;;;;;;;96.93;48.75;;;18.20;99.90;;;;;;4889667;29;20509;-60
2023/09/04 02:16:16;;;;;;;91.20;47.38;;;18.20;99.90;;;;;;4897472;29;20400;-60
2023/09/04 02:18:43;;;;;;;94.28;49.60;;;18.20;99.90;;;;;;4910480;29;20515;-60
2023/09/04 02:21:10;;;;;;;99.10;48.70;;;18.30;99.90;;;;;;4915445;29;20051;-60
2023/09/04 02:23:36;;;;;;;95.05;49.50;;;18.30;99.90;;;;;;4908491;29;20052;-60
2023/09/04 02:26:03;;;;;;;93.60;46.47;;;18.30;99.90;;;;;;4906379;29;20064;-60
2023/09/04 02:28:30;;;;;;;93.65;45.75;;;18.30;99.90;;;;;;4906976;29;20045;-60
2023/09/04 02:30:57;;;;;;;98.00;46.72;;;18.30;99.90;;;;;;4909064;29;20115;-61
2023/09/04 02:33:24;;;;;;;90.97;45.33;;;18.30;99.90;;;;;;4909113;29;20096;-60
2023/09/04 02:35:52;;;;;;;96.38;46.40;;;18.30;99.90;;;;;;4910626;29;20216;-61
2023/09/04 02:38:19;;;;;;;94.20;43.38;;;18.20;99.90;;;;;;4910206;29;20423;-60
2023/09/04 02:40:46;;;;;;;88.88;46.35;;;18.20;99.90;;;;;;4907954;29;20059;-60
2023/09/04 02:43:12;;;;;;;102.57;48.05;;;18.30;99.90;;;;;;4908752;29;20075;-60
2023/09/04 02:45:40;;;;;;;98.63;45.17;;;18.30;99.90;;;;;;4905962;29;20444;-60
2023/09/04 02:48:07;;;;;;;95.25;46.33;;;18.30;99.90;;;;;;4911289;29;20484;-60
2023/09/04 02:50:34;;;;;;;96.88;45.63;;;18.40;99.90;;;;;;4907295;29;20519;-60
2023/09/04 02:53:01;;;;;;;98.30;45.10;;;18.40;99.90;;;;;;4909643;29;20055;-60
2023/09/04 02:55:28;;;;;;;89.18;46.08;;;18.40;99.90;;;;;;4901189;29;20049;-59
2023/09/04 02:57:54;;;;;;;92.38;46.63;;;18.40;99.90;;;;;;4908531;29;20079;-64
2023/09/04 03:00:21;;;;;;;111.00;48.80;;;18.30;99.90;;;;;;4906633;29;20045;-60
2023/09/04 03:02:50;;;;;;;99.18;46.67;;;18.30;99.90;;;;;;4911987;29;20487;-60
2023/09/04 03:05:17;;;;;;;100.82;47.35;;;18.30;99.90;;;;;;4902122;29;20853;-59
2023/09/04 03:07:44;;;;;;;108.00;49.50;;;18.30;99.90;;;;;;4908678;29;20052;-59
2023/09/04 03:10:11;;;;;;;99.03;47.85;;;18.40;99.90;;;;;;4910203;29;20111;-59
2023/09/04 03:12:37;;;;;;;98.13;46.20;;;18.40;99.90;;;;;;4907991;29;20055;-60
2023/09/04 03:15:05;;;;;;;100.78;47.50;;;18.40;99.90;;;;;;4900456;29;20619;-60
2023/09/04 03:17:33;;;;;;;94.20;46.95;;;18.40;99.90;;;;;;4899130;29;20141;-60
2023/09/04 03:20:00;;;;;;;103.43;50.10;;;18.40;99.90;;;;;;4890034;29;20044;-60
2023/09/04 03:22:29;;;;;;;107.22;51.50;;;18.30;99.90;;;;;;4909388;29;20056;-60
2023/09/04 03:24:56;;;;;;;107.55;53.15;;;18.30;99.90;;;;;;4902954;29;20048;-60
2023/09/04 03:27:23;;;;;;;99.85;48.20;;;18.30;99.90;;;;;;4899636;29;20058;-60
2023/09/04 03:29:50;;;;;;;110.55;51.67;;;18.30;99.90;;;;;;4902282;29;20052;-60
2023/09/04 03:32:16;;;;;;;98.03;50.53;;;18.30;99.90;;;;;;4902801;29;20053;-58
2023/09/04 03:34:43;;;;;;;104.55;51.08;;;18.40;99.90;;;;;;4906790;29;20064;-60
2023/09/04 03:37:10;;;;;;;105.82;51.30;;;18.40;99.90;;;;;;4909792;29;20074;-60
2023/09/04 03:39:38;;;;;;;106.93;50.80;;;18.40;99.90;;;;;;4908521;29;20058;-59
2023/09/04 03:42:05;;;;;;;107.18;52.05;;;18.40;99.90;;;;;;4883581;29;20500;-59
2023/09/04 03:44:32;;;;;;;106.78;49.05;;;18.40;99.90;;;;;;4902468;29;20060;-59
2023/09/04 03:46:59;;;;;;;102.47;50.17;;;18.30;99.90;;;;;;4910587;29;20052;-59
2023/09/04 03:49:25;;;;;;;106.80;51.00;;;18.40;99.90;;;;;;4910146;29;20464;-60
2023/09/04 03:51:52;;;;;;;105.63;52.67;;;18.40;99.90;;;;;;4902143;29;20055;-61
2023/09/04 03:54:19;;;;;;;109.50;53.30;;;18.30;99.90;;;;;;4907190;29;20535;-60
2023/09/04 03:56:46;;;;;;;113.15;53.72;;;18.30;99.90;;;;;;4900678;29;20048;-60
2023/09/04 03:59:13;;;;;;;101.70;50.88;;;18.30;99.90;;;;;;4891752;29;20048;-59
2023/09/04 04:01:40;;;;;;;102.57;49.80;;;18.40;99.90;;;;;;4906112;29;20071;-59
2023/09/04 04:04:09;;;;;;;107.78;50.58;;;18.40;99.90;;;;;;4890531;29;20123;-60
2023/09/04 04:06:36;;;;;;;104.18;50.00;;;18.40;99.90;;;;;;4906191;29;20048;-59
2023/09/04 04:09:04;;;;;;;93.80;45.58;;;18.40;99.90;;;;;;4906430;29;20056;-59
2023/09/04 04:11:31;;;;;;;95.97;45.55;;;18.50;99.90;;;;;;4907515;29;20495;-60
2023/09/04 04:13:58;;;;;;;92.95;46.88;;;18.40;99.90;;;;;;4899100;29;20053;-60
2023/09/04 04:16:25;;;;;;;103.47;47.78;;;18.40;99.90;;;;;;4884526;29;20056;-60
2023/09/04 04:18:52;;;;;;;93.55;45.92;;;18.40;99.90;;;;;;4889472;29;20065;-60
2023/09/04 04:21:19;;;;;;;89.13;43.53;;;18.40;99.90;;;;;;4891949;29;20119;-61
2023/09/04 04:23:45;;;;;;;92.50;43.78;;;18.40;99.90;;;;;;4906298;29;20044;-61
2023/09/04 04:26:13;;;;;;;96.07;45.40;;;18.40;99.90;;;;;;4906659;29;20071;-59
2023/09/04 04:28:40;;;;;;;93.90;44.58;;;18.40;99.90;;;;;;4907226;29;20044;-60
2023/09/04 04:31:06;;;;;;;86.45;42.30;;;18.50;99.90;;;;;;4906867;29;20063;-63
2023/09/04 04:33:33;;;;;;;98.28;44.30;;;18.50;99.90;;;;;;4908257;29;20095;-59
2023/09/04 04:36:03;;;;;;;85.30;41.42;;;18.50;99.90;;;;;;4905824;29;20481;-59
2023/09/04 04:38:30;;;;;;;87.18;43.08;;;18.50;99.90;;;;;;4908408;29;20044;-59
2023/09/04 04:40:57;;;;;;;94.10;42.55;;;18.50;99.90;;;;;;4904278;29;20054;-60
2023/09/04 04:43:24;;;;;;;93.15;44.17;;;18.50;99.90;;;;;;4889791;29;20055;-60
2023/09/04 04:45:52;;;;;;;88.28;40.35;;;18.50;99.90;;;;;;4909772;29;20044;-60
2023/09/04 04:48:20;;;;;;;86.15;40.92;;;18.50;99.90;;;;;;4894430;29;20134;-60
2023/09/04 04:50:46;;;;;;;87.13;41.75;;;18.50;99.90;;;;;;4907085;29;20132;-61
2023/09/04 04:53:13;;;;;;;93.53;43.90;;;18.50;99.90;;;;;;4900229;29;20130;-62
2023/09/04 04:55:40;;;;;;;88.78;45.35;;;18.50;99.90;;;;;;4904814;29;20507;-62
2023/09/04 04:58:07;;;;;;;92.90;42.83;;;18.50;99.90;;;;;;4909606;29;20111;-59
2023/09/04 05:00:33;;;;;;;84.18;41.28;;;18.50;99.90;;;;;;4908536;29;20504;-59
2023/09/04 05:03:00;;;;;;;85.90;41.60;;;18.50;99.90;;;;;;4900468;29;20052;-59
2023/09/04 05:05:27;;;;;;;89.65;42.60;;;18.50;99.90;;;;;;4904139;29;20555;-60
2023/09/04 05:07:54;;;;;;;86.35;43.28;;;18.50;99.90;;;;;;4909122;29;20411;-59
2023/09/04 05:10:21;;;;;;;86.43;41.45;;;18.50;99.90;;;;;;4903453;29;20578;-59
2023/09/04 05:12:48;;;;;;;96.97;46.65;;;18.50;99.90;;;;;;4907244;29;20539;-59
2023/09/04 05:15:14;;;;;;;88.10;43.10;;;18.50;99.90;;;;;;4905827;29;20048;-59
2023/09/04 05:17:41;;;;;;;85.68;41.25;;;18.50;99.90;;;;;;4906652;29;20135;-60
2023/09/04 05:20:09;;;;;;;100.63;45.00;;;18.50;99.90;;;;;;4904632;29;20048;-59
2023/09/04 05:22:36;;;;;;;90.55;43.05;;;18.40;99.90;;;;;;4909656;29;20059;-60
2023/09/04 05:25:04;;;;;;;83.43;42.00;;;18.50;99.90;;;;;;4899316;29;20100;-59
2023/09/04 05:27:31;;;;;;;82.90;40.60;;;18.50;99.90;;;;;;4909610;29;20059;-59
2023/09/04 05:29:58;;;;;;;80.20;39.92;;;18.50;99.90;;;;;;4908377;29;20131;-59
2023/09/04 05:32:25;;;;;;;79.18;38.22;;;18.50;99.90;;;;;;4907074;29;20132;-60
2023/09/04 05:34:53;;;;;;;86.63;41.22;;;18.50;99.90;;;;;;4905741;29;20512;-60
2023/09/04 05:37:20;;;;;;;85.03;40.35;;;18.60;99.90;;;;;;4907794;29;21288;-60
2023/09/04 05:39:47;;;;;;;76.63;39.35;;;18.60;99.90;;;;;;4908724;29;20499;-60
2023/09/04 05:42:14;;;;;;;83.32;39.80;;;18.60;99.90;;;;;;4906312;29;20061;-60
2023/09/04 05:44:40;;;;;;;84.32;38.22;;;18.50;99.90;;;;;;4896041;29;20143;-59
2023/09/04 05:47:07;;;;;;;77.05;38.33;;;18.60;99.90;;;;;;4907486;29;20056;-61
2023/09/04 05:49:34;;;;;;;69.10;34.80;;;18.50;99.90;;;;;;4907616;29;20096;-60
2023/09/04 05:52:01;;;;;;;88.25;39.42;;;18.50;99.90;;;;;;4904180;29;20086;-60
2023/09/04 05:54:28;;;;;;;81.00;37.53;;;18.60;99.90;;;;;;4906662;29;20044;-60
2023/09/04 05:56:54;;;;;;;79.30;37.53;;;18.60;99.90;;;;;;4888293;29;20060;-61
2023/09/04 05:59:21;;;;;;;74.95;35.45;;;18.60;99.90;;;;;;4900519;29;20049;-60
2023/09/04 06:01:48;;;;;;;85.70;36.53;;;18.60;99.90;;;;;;4905380;29;20087;-62
2023/09/04 06:04:15;;;;;;;73.43;35.05;;;18.50;99.90;;;;;;4902050;29;20063;-61
2023/09/04 06:06:42;;;;;;;73.07;36.40;;;18.60;99.90;;;;;;4906534;29;20056;-60
2023/09/04 06:09:09;;;;;;;77.32;34.78;;;18.60;99.90;;;;;;4910163;29;20055;-60
2023/09/04 06:11:36;;;;;;;76.32;35.80;;;18.60;99.90;;;;;;4910725;29;20052;-61
2023/09/04 06:14:02;;;;;;;83.63;37.58;;;18.50;99.90;;;;;;4908614;29;20079;-61
2023/09/04 06:16:29;;;;;;;77.43;36.75;;;18.50;99.90;;;;;;4908513;29;20471;-61
2023/09/04 06:18:56;;;;;;;72.68;34.35;;;18.50;99.90;;;;;;4909962;29;20053;-60
2023/09/04 06:21:23;;;;;;;82.68;37.80;;;18.50;99.90;;;;;;4910741;29;20049;-60
2023/09/04 06:23:50;;;;;;;82.13;37.30;;;18.50;99.90;;;;;;4909767;29;20052;-60
2023/09/04 06:26:17;;;;;;;77.70;36.13;;;18.50;99.90;;;;;;4902789;29;20060;-60
2023/09/04 06:28:43;;;;;;;76.68;35.85;;;18.50;99.90;;;;;;4899392;29;20048;-60
2023/09/04 06:31:10;;;;;;;71.63;33.78;;;18.60;99.90;;;;;;4910708;29;20106;-60
2023/09/04 06:33:37;;;;;;;72.10;34.60;;;18.60;99.90;;;;;;4892647;29;20059;-60
2023/09/04 06:36:05;;;;;;;68.53;34.45;;;18.70;99.90;;;;;;4907290;29;20052;-59
2023/09/04 06:38:32;;;;;;;71.88;33.78;;;18.70;99.90;;;;;;4902522;29;20543;-60
2023/09/04 06:40:59;;;;;;;60.35;32.85;;;18.60;99.90;;;;;;4902911;29;20060;-60
2023/09/04 06:43:27;;;;;;;62.25;34.72;;;18.70;99.90;;;;;;4908067;29;20527;-60
2023/09/04 06:45:54;;;;;;;64.07;34.92;;;18.70;99.90;;;;;;4892728;29;20044;-59
2023/09/04 06:48:21;;;;;;;70.00;34.85;;;18.70;99.90;;;;;;4909229;29;20128;-59
2023/09/04 06:50:50;;;;;;;68.78;34.92;;;18.60;99.90;;;;;;4913461;29;20048;-59
2023/09/04 06:53:17;;;;;;;76.03;36.65;;;18.60;99.90;;;;;;4890981;29;20143;-59
2023/09/04 06:55:46;;;;;;;63.88;33.28;;;18.70;99.90;;;;;;4908925;29;20415;-59
2023/09/04 06:58:13;;;;;;;66.53;32.03;;;18.60;99.90;;;;;;4889934;29;20106;-61
2023/09/04 07:00:40;;;;;;;65.45;34.15;;;18.60;99.90;;;;;;4568817;29;10000063;-59
2023/09/04 07:03:07;;;;;;;68.15;34.28;;;18.70;99.90;;;;;;4903968;29;20088;-59
2023/09/04 07:05:34;;;;;;;63.88;33.28;;;18.70;99.90;;;;;;4906396;29;20052;-59
2023/09/04 07:08:01;;;;;;;74.43;36.75;;;18.70;99.90;;;;;;4907258;29;20064;-60
2023/09/04 07:10:28;;;;;;;75.45;35.53;;;18.70;99.90;;;;;;4902605;29;20048;-60
2023/09/04 07:12:55;;;;;;;66.03;35.15;;;18.80;99.90;;;;;;4891024;29;20107;-59
2023/09/04 07:15:21;;;;;;;58.03;33.30;;;18.80;99.90;;;;;;4898133;29;20254;-59
2023/09/04 07:17:48;;;;;;;66.38;33.35;;;18.90;99.90;;;;;;4899723;29;20090;-60
2023/09/04 07:20:15;;;;;;;56.38;32.10;;;18.90;99.90;;;;;;4908111;29;20048;-60
2023/09/04 07:22:42;;;;;;;64.68;32.42;;;19.00;99.90;;;;;;4906054;29;20052;-60
2023/09/04 07:25:10;;;;;;;62.17;32.75;;;19.00;99.90;;;;;;4885252;29;20587;-59
2023/09/04 07:27:38;;;;;;;61.35;32.75;;;19.00;99.90;;;;;;4902049;29;20095;-60
2023/09/04 07:30:05;;;;;;;54.40;30.10;;;19.10;99.90;;;;;;4905022;29;20052;-58
2023/09/04 07:32:32;;;;;;;57.83;33.00;;;19.10;99.90;;;;;;4901256;29;20056;-59
2023/09/04 07:35:00;;;;;;;58.67;31.67;;;19.20;99.90;;;;;;4897485;29;20044;-59
2023/09/04 07:37:27;;;;;;;58.38;29.20;;;19.30;99.90;;;;;;4892920;29;20067;-59
2023/09/04 07:39:54;;;;;;;47.45;27.40;;;19.30;99.90;;;;;;4903064;29;20059;-59
2023/09/04 07:42:21;;;;;;;53.15;29.25;;;19.40;99.90;;;;;;4902773;29;20056;-59
2023/09/04 07:44:49;;;;;;;48.13;28.60;;;19.40;99.90;;;;;;4901740;29;20053;-59
2023/09/04 07:47:16;;;;;;;57.15;27.92;;;19.40;99.90;;;;;;4905979;29;20063;-60
2023/09/04 07:49:42;;;;;;;47.70;28.15;;;19.50;99.90;;;;;;4899444;29;20044;-59
2023/09/04 07:52:09;;;;;;;50.10;29.05;;;19.60;99.90;;;;;;4903965;29;20052;-59
2023/09/04 07:54:36;;;;;;;44.78;25.55;;;19.60;99.90;;;;;;4896693;29;20052;-60
2023/09/04 07:57:05;;;;;;;49.50;27.00;;;19.70;99.90;;;;;;4878164;29;20053;-59
2023/09/04 07:59:31;;;;;;;46.10;25.98;;;19.70;99.90;;;;;;4897992;29;20054;-59
2023/09/04 08:01:59;;;;;;;50.10;26.95;;;19.80;99.90;;;;;;4899734;29;20056;-59
2023/09/04 08:04:25;;;;;;;40.53;24.50;;;19.90;99.90;;;;;;4901240;29;20057;-59
2023/09/04 08:06:52;;;;;;;36.28;23.90;;;19.90;99.90;;;;;;4905221;29;20096;-59
2023/09/04 08:09:19;;;;;;;37.50;22.48;;;20.00;99.90;;;;;;4879379;29;20078;-60
2023/09/04 08:11:46;;;;;;;43.50;23.65;;;20.00;99.90;;;;;;4887137;29;20060;-60
2023/09/04 08:14:13;;;;;;;34.58;22.23;;;20.10;99.90;;;;;;4903984;29;20453;-60
2023/09/04 08:16:39;;;;;;;37.25;22.67;;;20.10;99.90;;;;;;4899228;29;20052;-60
2023/09/04 08:19:06;;;;;;;36.28;23.05;;;20.20;99.90;;;;;;4906556;29;20608;-60
2023/09/04 08:21:35;;;;;;;34.67;21.48;;;20.30;99.90;;;;;;4902169;29;20056;-61
2023/09/04 08:24:02;;;;;;;31.75;20.33;;;20.30;99.90;;;;;;4896233;29;20052;-60
2023/09/04 08:26:29;;;;;;;31.30;18.25;;;20.40;99.90;;;;;;4897416;29;20072;-60
2023/09/04 08:28:56;;;;;;;36.25;21.70;;;20.40;99.90;;;;;;4905257;29;20094;-60
2023/09/04 08:31:23;;;;;;;25.70;16.27;;;20.50;99.90;;;;;;4903108;29;20160;-60
2023/09/04 08:33:50;;;;;;;25.98;16.42;;;20.60;99.90;;;;;;4881691;29;20055;-60
2023/09/04 08:36:17;;;;;;;23.17;15.40;;;20.80;99.90;;;;;;4883154;29;20063;-59
2023/09/04 08:38:44;;;;;;;26.45;14.95;;;20.80;99.90;;;;;;4899265;29;20422;-59
2023/09/04 08:41:11;;;;;;;19.45;13.90;;;20.90;99.90;;;;;;4903109;29;20052;-58
2023/09/04 08:43:38;;;;;;;20.58;12.95;;;21.00;99.90;;;;;;4899808;29;20075;-60
2023/09/04 08:46:06;;;;;;;26.88;14.88;;;21.10;99.90;;;;;;4881036;29;20071;-59
2023/09/04 08:48:37;;;;;;;26.30;13.27;;;21.20;99.90;;;;;;4903012;29;20556;-60
2023/09/04 08:51:08;;;;;;;23.17;13.20;;;21.20;99.90;;;;;;4895755;29;20059;-59
2023/09/04 08:53:37;;;;;;;24.30;13.10;;;21.30;99.90;;;;;;4894758;29;20472;-59
2023/09/04 08:56:04;;;;;;;18.60;12.35;;;21.40;99.90;;;;;;4899869;29;20044;-59
2023/09/04 08:58:31;;;;;;;19.10;9.05;;;21.50;99.90;;;;;;4886247;29;20055;-59
2023/09/04 09:00:58;;;;;;;17.23;10.18;;;21.60;99.90;;;;;;4899457;29;20641;-60
2023/09/04 09:03:25;;;;;;;16.30;8.70;;;21.70;99.90;;;;;;4885462;29;20402;-61
2023/09/04 09:05:55;;;;;;;18.50;9.07;;;21.80;99.90;;;;;;4879629;29;20056;-60
2023/09/04 09:08:23;;;;;;;12.02;7.82;;;22.00;99.90;;;;;;4870472;29;20048;-60
2023/09/04 09:10:51;;;;;;;18.83;9.25;;;22.00;99.90;;;;;;4890507;29;20063;-61
2023/09/04 09:13:17;;;;;;;20.27;8.57;;;22.10;99.90;;;;;;4899044;29;20049;-60
2023/09/04 09:15:44;;;;;;;16.55;8.50;;;22.30;99.90;;;;;;4904109;29;20206;-60
2023/09/04 09:18:11;;;;;;;18.33;8.85;;;22.40;99.90;;;;;;4908226;29;20075;-60
2023/09/04 09:20:39;;;;;;;19.73;7.03;;;22.40;99.90;;;;;;4902872;29;20049;-60
2023/09/04 09:23:06;;;;;;;9.00;6.20;;;22.50;99.90;;;;;;4901222;29;20052;-60
2023/09/04 09:25:33;;;;;;;14.20;6.47;;;22.60;99.90;;;;;;4906000;29;20111;-59
2023/09/04 09:28:01;;;;;;;9.13;5.80;;;22.90;99.90;;;;;;4897396;29;20459;-59
2023/09/04 09:30:36;;;;;;;19.00;5.68;;;23.30;99.90;;;;;;4903275;29;20045;-60
2023/09/04 09:33:06;;;;;;;12.77;5.18;;;23.80;99.90;;;;;;4897641;29;20083;-60
2023/09/04 09:35:33;;;;;;;9.70;5.38;;;24.30;99.90;;;;;;4903633;29;20139;-59
2023/09/04 09:38:01;;;;;;;8.90;5.15;;;24.70;99.90;;;;;;4896621;29;20488;-61
2023/09/04 09:40:28;;;;;;;12.98;5.63;;;24.90;99.90;;;;;;4898975;29;20364;-60
2023/09/04 09:42:55;;;;;;;18.92;6.93;;;25.10;99.90;;;;;;4909253;29;20052;-61
2023/09/04 09:45:22;;;;;;;13.48;5.18;;;25.40;99.90;;;;;;4908879;29;20049;-60
2023/09/04 09:47:50;;;;;;;12.15;5.30;;;25.70;99.90;;;;;;4909223;29;20088;-59
2023/09/04 09:50:18;;;;;;;8.93;3.95;;;25.90;99.90;;;;;;4894892;29;20052;-59
2023/09/04 09:53:05;;;;;;;6.25;3.70;;;26.10;99.90;;;;;;4911620;29;20524;-60
2023/09/04 09:55:33;;;;;;;7.15;4.65;;;26.10;99.90;;;;;;4911535;29;20058;-60
2023/09/04 09:58:01;;;;;;;10.00;4.00;;;26.30;99.90;;;;;;4911735;29;20052;-61
2023/09/04 10:00:28;;;;;;;8.55;4.07;;;26.50;99.90;;;;;;4911436;29;20048;-60
2023/09/04 10:02:55;;;;;;;14.30;4.75;;;26.80;99.90;;;;;;4907115;29;20131;-60
2023/09/04 10:05:22;;;;;;;10.32;4.15;;;26.80;99.90;;;;;;4901281;29;20080;-60
2023/09/04 10:07:51;;;;;;;6.15;3.63;;;26.50;99.90;;;;;;4905190;29;20063;-60
2023/09/04 10:10:18;;;;;;;9.55;4.28;;;26.20;99.90;;;;;;4889813;29;20547;-59
2023/09/04 10:12:49;;;;;;;14.70;4.10;;;25.90;99.90;;;;;;4893085;29;20048;-61
2023/09/04 10:15:28;;;;;;;9.15;3.72;;;25.70;99.90;;;;;;4908550;29;20252;-60
2023/09/04 10:18:06;;;;;;;6.88;4.30;;;25.60;99.90;;;;;;4896628;29;20219;-62
2023/09/04 10:20:34;;;;;;;6.55;3.22;;;25.50;99.90;;;;;;4899327;29;20043;-61
2023/09/04 10:23:07;;;;;;;9.70;4.38;;;25.40;99.90;;;;;;4911180;29;20052;-59
2023/09/04 10:25:47;;;;;;;11.27;3.72;;;25.40;99.90;;;;;;4897394;29;20456;-59
2023/09/04 10:28:19;;;;;;;8.13;4.13;;;25.30;99.90;;;;;;4897395;29;20127;-59
2023/09/04 10:31:06;;;;;;;6.18;3.40;;;25.40;99.90;;;;;;4908778;29;20053;-59
2023/09/04 10:33:37;;;;;;;5.55;3.17;;;25.30;99.90;;;;;;4901333;29;20134;-59
2023/09/04 10:36:05;;;;;;;6.72;3.92;;;25.30;99.90;;;;;;4904085;29;20050;-59
2023/09/04 10:38:31;;;;;;;10.45;3.95;;;25.30;99.90;;;;;;4897915;29;20593;-60
2023/09/04 10:40:58;;;;;;;13.30;3.88;;;25.30;99.90;;;;;;4889873;29;20120;-59
2023/09/04 10:43:38;;;;;;;6.75;3.42;;;25.30;99.90;;;;;;4887297;29;20472;-59
2023/09/04 10:46:09;;;;;;;8.65;3.92;;;25.30;99.90;;;;;;4905032;29;20420;-60
2023/09/04 10:48:43;;;;;;;14.68;4.20;;;25.30;99.90;;;;;;4913239;29;20269;-59
2023/09/04 10:51:35;;;;;;;5.05;3.40;;;25.30;99.90;;;;;;4908284;29;20068;-60
2023/09/04 10:54:12;;;;;;;8.60;4.07;;;25.30;99.90;;;;;;4911306;29;20102;-59
2023/09/04 10:56:52;;;;;;;12.52;4.00;;;25.30;99.90;;;;;;4908454;29;20052;-59
2023/09/04 10:59:19;;;;;;;8.93;3.38;;;25.30;99.90;;;;;;4912135;29;20119;-59
2023/09/04 11:01:46;;;;;;;15.40;4.20;;;25.40;99.90;;;;;;4909961;29;20048;-59
2023/09/04 11:04:46;;;;;;;7.30;3.90;;;25.40;99.90;;;;;;4903823;29;20052;-59
2023/09/04 11:07:16;;;;;;;7.00;3.22;;;25.50;99.90;;;;;;4552133;29;10000403;-60
2023/09/04 11:09:42;;;;;;;7.55;3.55;;;25.60;99.90;;;;;;4908633;29;20059;-59
2023/09/04 11:12:10;;;;;;;3.72;2.95;;;25.70;99.90;;;;;;4908036;29;20700;-59
2023/09/04 11:14:47;;;;;;;9.90;3.13;;;25.70;99.90;;;;;;4912432;29;20245;-61
2023/09/04 11:17:14;;;;;;;6.07;3.40;;;25.70;99.90;;;;;;4907782;29;20056;-59
2023/09/04 11:19:41;;;;;;;6.95;3.60;;;25.80;99.90;;;;;;4911905;29;20052;-60
2023/09/04 11:22:24;;;;;;;5.80;3.58;;;25.80;99.90;;;;;;4902091;29;20504;-60
2023/09/04 11:24:54;;;;;;;7.25;4.07;;;25.90;99.90;;;;;;4911898;29;20056;-59
2023/09/04 11:27:21;;;;;;;9.25;4.20;;;26.00;99.90;;;;;;4901328;29;20196;-59
2023/09/04 11:29:48;;;;;;;6.70;4.38;;;26.00;99.90;;;;;;4911912;29;20044;-59
2023/09/04 11:32:15;;;;;;;5.75;3.70;;;26.00;99.90;;;;;;4906172;29;20051;-59
2023/09/04 11:34:43;;;;;;;15.90;4.85;;;26.00;99.90;;;;;;4898950;29;20111;-59
2023/09/04 11:37:12;;;;;;;11.95;3.70;;;26.00;99.90;;;;;;4893956;29;20084;-59
2023/09/04 11:39:55;;;;;;;12.20;5.50;;;26.10;99.90;;;;;;4898812;29;20051;-60
2023/09/04 11:42:28;;;;;;;14.65;3.42;;;26.20;99.90;;;;;;4910306;29;20108;-59
2023/09/04 11:44:55;;;;;;;7.78;4.18;;;26.30;99.90;;;;;;4898365;29;20423;-60
2023/09/04 11:47:22;;;;;;;5.65;4.28;;;26.40;99.90;;;;;;4910069;29;20048;-59
2023/09/04 11:49:49;;;;;;;8.07;4.20;;;26.40;99.90;;;;;;4910699;29;20063;-59
2023/09/04 11:52:16;;;;;;;10.23;4.30;;;26.30;99.90;;;;;;4910502;29;20070;-59
2023/09/04 11:54:43;;;;;;;5.75;3.97;;;26.30;99.90;;;;;;4910513;29;20044;-62
2023/09/04 11:57:10;;;;;;;12.02;4.75;;;26.40;99.90;;;;;;4908829;29;20056;-60
2023/09/04 11:59:39;;;;;;;7.47;4.85;;;26.40;99.90;;;;;;4909608;29;20056;-61
2023/09/04 12:02:06;;;;;;;8.50;4.25;;;26.40;99.90;;;;;;4903663;29;20087;-60
2023/09/04 12:04:33;;;;;;;8.43;4.50;;;26.40;99.90;;;;;;4899339;29;20290;-60
2023/09/04 12:07:00;;;;;;;8.63;4.13;;;26.60;99.90;;;;;;4892005;29;20116;-60
2023/09/04 12:09:28;;;;;;;7.93;4.50;;;26.60;99.90;;;;;;4909675;29;20055;-60
2023/09/04 12:11:55;;;;;;;9.60;5.10;;;26.70;99.90;;;;;;4890524;29;20468;-60
2023/09/04 12:14:22;;;;;;;6.55;4.53;;;26.80;99.90;;;;;;4904622;29;20100;-60
2023/09/04 12:16:49;;;;;;;6.18;4.70;;;26.80;99.90;;;;;;4893905;29;20063;-63
2023/09/04 12:19:16;;;;;;;6.07;4.50;;;26.90;99.90;;;;;;4887628;29;20056;-60
2023/09/04 12:21:43;;;;;;;7.50;5.20;;;26.90;99.90;;;;;;4910762;29;20120;-60
2023/09/04 12:24:11;;;;;;;8.85;4.85;;;26.90;99.90;;;;;;4904910;29;20479;-60
2023/09/04 12:26:38;;;;;;;8.05;5.03;;;27.00;99.90;;;;;;4909694;29;20063;-60
2023/09/04 12:29:07;;;;;;;8.13;4.90;;;27.10;99.90;;;;;;4890211;29;20073;-59
2023/09/04 12:31:34;;;;;;;11.48;5.13;;;27.20;99.90;;;;;;4905343;29;20044;-60
2023/09/04 12:34:01;;;;;;;15.15;5.78;;;27.20;99.90;;;;;;4901714;29;20056;-60
2023/09/04 12:36:32;;;;;;;13.30;6.65;;;27.20;99.90;;;;;;4898411;29;20058;-58